Time;durP1;ratioP1;P1;durP2;ratioP2;P2;SDS_P1;SDS_P2;PMS_P1;PMS_P2;Temp;Humidity;BMP_temperature;BMP_pressure;BME280_temperature;BME280_humidity;BME280_pressure;Samples;Min_cycle;Max_cycle;Signal;HPM_P1;HPM_P2
2021/09/28 00:00:25;;;;;;;1.83;1.60;;;16.80;52.40;;;;;;4993840;28;20426;-84
2021/09/28 00:02:51;;;;;;;1.50;1.50;;;16.70;53.10;;;;;;4993574;28;20515;-87
2021/09/28 00:05:16;;;;;;;2.70;1.70;;;16.70;53.50;;;;;;4993769;28;20189;-86
2021/09/28 00:07:42;;;;;;;2.50;1.87;;;16.60;54.00;;;;;;4993286;28;20226;-86
2021/09/28 00:10:08;;;;;;;2.33;2.23;;;16.60;53.90;;;;;;4993649;28;20595;-86
2021/09/28 00:12:34;;;;;;;1.50;1.40;;;16.60;53.40;;;;;;4993563;28;20193;-87
2021/09/28 00:14:59;;;;;;;1.43;1.33;;;16.50;53.90;;;;;;4993368;28;20178;-86
2021/09/28 00:17:25;;;;;;;1.50;1.50;;;16.30;54.90;;;;;;4993259;28;20182;-86
2021/09/28 00:19:51;;;;;;;1.40;1.30;;;16.30;55.70;;;;;;4993399;28;20186;-86
2021/09/28 00:22:16;;;;;;;1.27;1.27;;;16.30;54.80;;;;;;4993180;28;20205;-86
2021/09/28 00:24:42;;;;;;;1.40;1.40;;;16.20;55.20;;;;;;4993562;28;20182;-86
2021/09/28 00:27:07;;;;;;;1.57;1.33;;;16.20;54.60;;;;;;4993102;28;20174;-86
2021/09/28 00:29:33;;;;;;;2.90;1.60;;;16.20;54.50;;;;;;4993086;28;20182;-86
2021/09/28 00:31:59;;;;;;;1.80;1.70;;;16.10;55.40;;;;;;4993136;28;20188;-86
2021/09/28 00:34:24;;;;;;;1.67;1.57;;;16.00;56.70;;;;;;4993221;28;20193;-86
2021/09/28 00:36:50;;;;;;;1.63;1.53;;;15.60;58.20;;;;;;4992765;28;20178;-86
2021/09/28 00:39:16;;;;;;;2.20;2.00;;;15.40;60.10;;;;;;4993089;28;20181;-86
2021/09/28 00:41:42;;;;;;;1.33;1.33;;;15.40;61.80;;;;;;4992953;28;20210;-86
2021/09/28 00:44:08;;;;;;;1.70;1.60;;;15.40;61.40;;;;;;4992962;28;20178;-86
2021/09/28 00:46:34;;;;;;;1.67;1.57;;;15.30;58.90;;;;;;4992907;28;20452;-86
2021/09/28 00:48:59;;;;;;;1.83;1.73;;;15.30;59.70;;;;;;4992687;28;20181;-86
2021/09/28 00:51:26;;;;;;;1.90;1.80;;;15.10;61.60;;;;;;4992925;28;20189;-84
2021/09/28 00:53:53;;;;;;;1.67;1.57;;;15.10;61.90;;;;;;4992851;28;20197;-85
2021/09/28 00:56:21;;;;;;;3.10;1.70;;;15.30;59.40;;;;;;4992682;28;20452;-86
2021/09/28 00:58:47;;;;;;;1.73;1.43;;;15.10;58.60;;;;;;4992547;28;20425;-85
2021/09/28 01:01:14;;;;;;;2.20;1.70;;;14.90;60.60;;;;;;4992638;28;20503;-85
2021/09/28 01:03:40;;;;;;;3.37;1.80;;;14.90;61.60;;;;;;4992712;28;20421;-86
2021/09/28 01:06:06;;;;;;;3.90;2.00;;;14.60;60.70;;;;;;4992710;28;20425;-86
2021/09/28 01:08:32;;;;;;;1.93;1.80;;;14.70;62.20;;;;;;4992270;28;20472;-86
2021/09/28 01:10:58;;;;;;;2.23;1.90;;;14.70;60.60;;;;;;4992499;28;20425;-86
2021/09/28 01:13:25;;;;;;;3.20;2.10;;;14.80;60.20;;;;;;4992287;28;20479;-86
2021/09/28 01:15:59;;;;;;;1.90;1.53;;;14.70;60.10;;;;;;4992449;28;20265;-86
2021/09/28 01:18:30;;;;;;;2.00;1.90;;;14.60;60.80;;;;;;4992142;28;20429;-87
2021/09/28 01:20:57;;;;;;;1.80;1.70;;;14.50;61.90;;;;;;4992206;28;20461;-87
2021/09/28 01:23:22;;;;;;;6.00;1.80;;;14.50;62.70;;;;;;4992246;28;20429;-86
2021/09/28 01:25:48;;;;;;;1.60;1.47;;;14.40;61.80;;;;;;4992260;28;20463;-86
2021/09/28 01:28:14;;;;;;;1.80;1.70;;;14.30;61.30;;;;;;4991987;28;20231;-86
2021/09/28 01:30:40;;;;;;;2.10;1.73;;;14.40;62.50;;;;;;4992482;28;20261;-86
2021/09/28 01:33:05;;;;;;;3.53;1.80;;;14.40;59.90;;;;;;4992078;28;20588;-87
2021/09/28 01:35:31;;;;;;;1.87;1.77;;;14.40;61.30;;;;;;4992056;28;20174;-85
2021/09/28 01:37:57;;;;;;;2.10;1.93;;;14.40;59.30;;;;;;4991797;28;20178;-85
2021/09/28 01:40:23;;;;;;;1.80;1.70;;;14.40;59.10;;;;;;4992314;28;20185;-86
2021/09/28 01:42:49;;;;;;;1.80;1.70;;;14.40;58.50;;;;;;4993570;28;20461;-85
2021/09/28 01:45:15;;;;;;;2.20;1.80;;;14.50;56.90;;;;;;4992319;28;20432;-86
2021/09/28 01:47:41;;;;;;;3.80;2.37;;;14.50;58.00;;;;;;4991722;28;20902;-87
2021/09/28 01:50:08;;;;;;;2.57;2.03;;;14.50;56.90;;;;;;4991863;28;20178;-84
2021/09/28 01:52:35;;;;;;;2.97;2.00;;;14.50;57.60;;;;;;4991812;28;20440;-86
2021/09/28 01:55:01;;;;;;;1.67;1.60;;;14.50;56.70;;;;;;4991869;28;20860;-86
2021/09/28 01:57:26;;;;;;;2.17;1.60;;;14.60;56.30;;;;;;4991661;28;20424;-86
2021/09/28 01:59:52;;;;;;;2.40;1.70;;;14.60;56.80;;;;;;4992029;28;20516;-85
2021/09/28 02:02:18;;;;;;;1.60;1.50;;;14.60;56.40;;;;;;4991540;28;20663;-86
2021/09/28 02:04:43;;;;;;;2.53;2.30;;;14.50;55.40;;;;;;4991873;28;20554;-86
2021/09/28 02:07:09;;;;;;;2.53;1.97;;;14.50;56.50;;;;;;4991728;28;20210;-86
2021/09/28 02:09:34;;;;;;;2.07;1.87;;;14.50;56.20;;;;;;4991760;28;20210;-86
2021/09/28 02:12:00;;;;;;;1.83;1.70;;;14.50;56.20;;;;;;4991713;28;20217;-86
2021/09/28 02:14:27;;;;;;;3.07;1.80;;;14.50;56.30;;;;;;4991507;28;20182;-86
2021/09/28 02:16:54;;;;;;;2.80;1.77;;;14.60;56.80;;;;;;4991476;28;20540;-86
2021/09/28 02:19:19;;;;;;;2.50;1.90;;;14.60;56.70;;;;;;4991622;28;20871;-86
2021/09/28 02:21:45;;;;;;;2.40;2.20;;;14.60;56.40;;;;;;4991491;28;20495;-86
2021/09/28 02:24:12;;;;;;;1.73;1.60;;;14.50;56.60;;;;;;4991582;28;20547;-85
2021/09/28 02:26:38;;;;;;;2.07;1.80;;;14.50;57.10;;;;;;4991198;28;20209;-85
2021/09/28 02:29:05;;;;;;;2.10;1.90;;;14.40;56.40;;;;;;4991518;28;20413;-85
2021/09/28 02:31:30;;;;;;;1.80;1.70;;;14.60;57.50;;;;;;4991276;28;20520;-85
2021/09/28 02:33:56;;;;;;;2.03;1.70;;;14.50;56.50;;;;;;4992823;28;20890;-85
2021/09/28 02:36:23;;;;;;;2.40;2.20;;;14.50;55.40;;;;;;4991318;28;20627;-85
2021/09/28 02:38:48;;;;;;;2.97;1.90;;;14.50;56.30;;;;;;4991347;28;20182;-85
2021/09/28 02:41:14;;;;;;;2.03;1.83;;;14.50;55.40;;;;;;4991302;28;20799;-86
2021/09/28 02:43:40;;;;;;;2.60;2.17;;;14.50;55.40;;;;;;4991370;28;20418;-85
2021/09/28 02:46:06;;;;;;;2.00;1.90;;;14.40;56.30;;;;;;4991580;28;20761;-86
2021/09/28 02:48:31;;;;;;;2.43;1.93;;;14.50;57.30;;;;;;4991158;28;20216;-85
2021/09/28 02:50:58;;;;;;;2.43;2.23;;;14.50;57.10;;;;;;4991325;28;20269;-85
2021/09/28 02:53:24;;;;;;;2.17;1.97;;;14.40;56.00;;;;;;4991224;28;20626;-85
2021/09/28 02:55:50;;;;;;;2.17;1.90;;;14.40;56.90;;;;;;4991397;28;20444;-84
2021/09/28 02:58:16;;;;;;;2.87;1.93;;;14.40;56.70;;;;;;4991052;28;20463;-85
2021/09/28 03:00:41;;;;;;;2.67;2.00;;;14.40;56.70;;;;;;4991067;28;20914;-85
2021/09/28 03:03:07;;;;;;;5.27;2.23;;;14.40;57.00;;;;;;4991267;28;20273;-85
2021/09/28 03:05:33;;;;;;;2.10;1.90;;;14.40;56.30;;;;;;4991371;28;20178;-85
2021/09/28 03:07:59;;;;;;;3.20;2.20;;;14.40;56.60;;;;;;4991130;28;20599;-85
2021/09/28 03:10:25;;;;;;;1.97;1.87;;;14.50;57.10;;;;;;4991166;28;20413;-85
2021/09/28 03:12:51;;;;;;;2.43;2.20;;;14.50;57.40;;;;;;4991007;28;20452;-84
2021/09/28 03:15:16;;;;;;;2.90;2.53;;;14.50;57.10;;;;;;4993045;28;20209;-84
2021/09/28 03:17:42;;;;;;;2.80;2.40;;;14.50;57.20;;;;;;4994527;28;20182;-84
2021/09/28 03:20:08;;;;;;;3.50;2.00;;;14.50;57.30;;;;;;4994727;28;20190;-86
2021/09/28 03:22:34;;;;;;;2.20;2.00;;;14.50;57.60;;;;;;4994404;28;20237;-86
2021/09/28 03:25:00;;;;;;;5.83;2.40;;;14.50;58.40;;;;;;4994559;28;20452;-85
2021/09/28 03:27:25;;;;;;;2.80;2.47;;;14.50;58.10;;;;;;4994141;28;20182;-85
2021/09/28 03:29:51;;;;;;;2.50;2.30;;;14.40;58.00;;;;;;4995793;28;20261;-86
2021/09/28 03:32:16;;;;;;;3.20;2.87;;;14.50;58.40;;;;;;4994400;28;20205;-86
2021/09/28 03:34:42;;;;;;;3.13;2.13;;;14.50;57.70;;;;;;4994517;28;20186;-86
2021/09/28 03:37:08;;;;;;;3.70;2.33;;;14.40;58.20;;;;;;4994148;28;20178;-86
2021/09/28 03:39:33;;;;;;;5.87;2.90;;;14.40;58.70;;;;;;4994490;28;20264;-85
2021/09/28 03:41:59;;;;;;;2.70;2.50;;;14.30;58.90;;;;;;4994097;28;20240;-86
2021/09/28 03:44:25;;;;;;;6.50;3.00;;;14.30;59.30;;;;;;4994112;28;20587;-85
2021/09/28 03:46:51;;;;;;;2.73;2.53;;;14.30;59.10;;;;;;4993852;28;20432;-85
2021/09/28 03:49:16;;;;;;;2.97;2.50;;;14.30;59.10;;;;;;4994445;28;20178;-85
2021/09/28 03:51:42;;;;;;;2.50;2.40;;;14.40;59.40;;;;;;4994328;28;20550;-86
2021/09/28 03:54:07;;;;;;;4.23;2.60;;;14.30;58.80;;;;;;4994113;28;20182;-85
2021/09/28 03:56:33;;;;;;;2.67;2.47;;;14.30;58.90;;;;;;4994538;28;20232;-85
2021/09/28 03:58:59;;;;;;;3.43;3.10;;;14.30;59.10;;;;;;5003785;28;20235;-86
2021/09/28 04:01:24;;;;;;;3.17;2.97;;;14.30;59.20;;;;;;5004583;28;20201;-84
2021/09/28 04:03:50;;;;;;;2.90;2.57;;;14.20;59.30;;;;;;4994372;28;20264;-83
2021/09/28 04:06:16;;;;;;;7.63;3.13;;;14.30;58.90;;;;;;4994228;28;20179;-84
2021/09/28 04:08:41;;;;;;;3.43;2.83;;;14.20;59.30;;;;;;4993867;28;20178;-85
2021/09/28 04:11:07;;;;;;;4.03;2.93;;;14.20;59.60;;;;;;4993927;28;20526;-86
2021/09/28 04:13:33;;;;;;;3.10;2.53;;;14.10;59.70;;;;;;4993851;28;20204;-84
2021/09/28 04:16:00;;;;;;;4.23;2.50;;;14.00;60.30;;;;;;4995380;28;20182;-85
2021/09/28 04:18:25;;;;;;;4.83;3.77;;;14.00;60.60;;;;;;4993680;28;20313;-84
2021/09/28 04:20:52;;;;;;;6.20;3.20;;;14.00;60.80;;;;;;4994018;28;20507;-85
2021/09/28 04:23:19;;;;;;;3.80;2.60;;;14.10;60.30;;;;;;4993889;28;20623;-83
2021/09/28 04:25:45;;;;;;;5.17;3.23;;;14.00;60.70;;;;;;5009082;28;20425;-84
2021/09/28 04:28:11;;;;;;;3.03;2.83;;;14.00;59.70;;;;;;5013118;28;20420;-84
2021/09/28 04:30:37;;;;;;;3.70;3.20;;;14.10;60.30;;;;;;5013575;28;20443;-84
2021/09/28 04:33:03;;;;;;;2.90;2.60;;;14.00;60.80;;;;;;5013172;28;20525;-85
2021/09/28 04:35:28;;;;;;;4.50;2.83;;;14.00;60.60;;;;;;5013277;28;20462;-86
2021/09/28 04:37:54;;;;;;;3.50;3.30;;;14.00;60.20;;;;;;5012875;28;20212;-83
2021/09/28 04:40:20;;;;;;;4.20;3.20;;;14.00;59.90;;;;;;5013072;28;20186;-82
2021/09/28 04:42:46;;;;;;;3.10;2.63;;;13.90;60.60;;;;;;5013030;28;20992;-83
2021/09/28 04:45:12;;;;;;;4.30;2.77;;;13.90;60.30;;;;;;5009790;28;20488;-83
2021/09/28 04:47:38;;;;;;;3.90;3.47;;;13.90;60.60;;;;;;4993400;28;20723;-84
2021/09/28 04:50:05;;;;;;;3.27;2.97;;;13.90;60.70;;;;;;4993403;28;20178;-83
2021/09/28 04:52:31;;;;;;;3.40;3.20;;;13.80;60.90;;;;;;4988164;28;20445;-84
2021/09/28 04:54:57;;;;;;;4.90;3.27;;;13.70;61.20;;;;;;5003333;28;20420;-84
2021/09/28 04:57:23;;;;;;;3.80;3.43;;;13.60;62.30;;;;;;5012436;28;20247;-84
2021/09/28 04:59:49;;;;;;;4.27;3.47;;;13.70;61.90;;;;;;5003936;28;20239;-83
2021/09/28 05:02:15;;;;;;;3.30;3.00;;;13.60;61.90;;;;;;4998867;28;20471;-84
2021/09/28 05:04:41;;;;;;;5.30;3.20;;;13.60;62.10;;;;;;5001255;28;20251;-83
2021/09/28 05:07:07;;;;;;;3.50;3.13;;;13.60;63.20;;;;;;4998838;28;20841;-83
2021/09/28 05:09:33;;;;;;;3.97;3.23;;;13.60;62.10;;;;;;4999171;28;20451;-83
2021/09/28 05:11:59;;;;;;;6.50;3.10;;;13.50;61.60;;;;;;5001203;28;20228;-83
2021/09/28 05:14:26;;;;;;;5.27;3.60;;;13.60;61.80;;;;;;5004343;28;20207;-82
2021/09/28 05:16:52;;;;;;;3.20;3.00;;;13.60;61.50;;;;;;5000847;28;20440;-83
2021/09/28 05:19:17;;;;;;;6.60;4.33;;;13.60;62.10;;;;;;5000731;28;20886;-82
2021/09/28 05:21:43;;;;;;;4.83;4.43;;;13.60;61.10;;;;;;5000326;28;21088;-82
2021/09/28 05:24:10;;;;;;;8.23;3.73;;;13.70;61.10;;;;;;4984482;28;20327;-82
2021/09/28 05:26:36;;;;;;;28.70;22.10;;;13.60;60.90;;;;;;5001363;28;20538;-83
2021/09/28 05:29:01;;;;;;;6.10;4.93;;;13.60;60.80;;;;;;5002060;28;20286;-82
2021/09/28 05:31:28;;;;;;;4.47;4.03;;;13.50;60.90;;;;;;5019617;28;20302;-82
2021/09/28 05:33:54;;;;;;;3.90;3.60;;;13.40;61.60;;;;;;4998942;28;20224;-83
2021/09/28 05:36:19;;;;;;;4.83;3.57;;;13.50;61.20;;;;;;5001822;28;20951;-82
2021/09/28 05:38:45;;;;;;;3.37;3.17;;;13.50;61.10;;;;;;4999466;28;20231;-81
2021/09/28 05:41:11;;;;;;;3.60;3.30;;;13.40;60.80;;;;;;5001191;28;20636;-81
2021/09/28 05:43:39;;;;;;;4.50;3.20;;;13.40;61.70;;;;;;5001378;28;20347;-81
2021/09/28 05:46:05;;;;;;;6.97;4.00;;;13.40;61.20;;;;;;5004354;28;20232;-83
2021/09/28 05:48:30;;;;;;;4.97;3.63;;;13.40;61.30;;;;;;5000930;28;20458;-82
2021/09/28 05:50:56;;;;;;;7.27;4.70;;;13.40;61.20;;;;;;5001018;28;20969;-81
2021/09/28 05:53:22;;;;;;;4.40;3.83;;;13.30;62.00;;;;;;5000436;28;20233;-82
2021/09/28 05:55:48;;;;;;;5.20;4.00;;;13.30;61.60;;;;;;5000200;28;20311;-81
2021/09/28 05:58:13;;;;;;;4.70;3.93;;;13.30;62.40;;;;;;5000378;28;20312;-81
2021/09/28 06:00:39;;;;;;;6.80;4.13;;;13.40;62.70;;;;;;4999613;28;20235;-81
2021/09/28 06:03:06;;;;;;;5.90;4.20;;;13.40;62.20;;;;;;5000986;28;20329;-81
2021/09/28 06:05:32;;;;;;;9.60;8.50;;;13.50;61.30;;;;;;5000927;28;20455;-80
2021/09/28 06:07:58;;;;;;;5.03;4.73;;;13.50;62.40;;;;;;5001150;28;20959;-79
2021/09/28 06:10:23;;;;;;;5.47;5.03;;;13.60;61.70;;;;;;5001305;28;20451;-80
2021/09/28 06:12:49;;;;;;;6.80;4.83;;;13.60;60.90;;;;;;5001324;28;20232;-80
2021/09/28 06:15:15;;;;;;;7.55;6.15;;;13.60;61.00;;;;;;5000382;28;20422;-81
2021/09/28 06:17:40;;;;;;;6.83;4.83;;;13.50;61.60;;;;;;5001470;28;20550;-81
2021/09/28 06:20:07;;;;;;;5.47;4.97;;;13.40;62.20;;;;;;5001126;28;20588;-81
2021/09/28 06:22:32;;;;;;;4.13;3.80;;;13.50;62.90;;;;;;4999605;28;20307;-81
2021/09/28 06:24:58;;;;;;;4.87;4.50;;;13.60;62.70;;;;;;4999974;28;20805;-81
2021/09/28 06:27:24;;;;;;;6.53;4.03;;;13.70;61.00;;;;;;5000557;28;20228;-81
2021/09/28 06:29:51;;;;;;;5.87;4.80;;;13.80;61.20;;;;;;5000695;28;20228;-82
2021/09/28 06:32:18;;;;;;;4.07;3.77;;;13.80;61.50;;;;;;5004175;28;20451;-81
2021/09/28 06:34:44;;;;;;;4.23;3.80;;;13.80;60.40;;;;;;5002374;28;20459;-82
2021/09/28 06:37:12;;;;;;;4.53;4.23;;;13.80;60.60;;;;;;5001932;28;20526;-81
2021/09/28 06:39:38;;;;;;;4.40;4.10;;;13.80;59.60;;;;;;5007063;28;20832;-82
2021/09/28 06:42:04;;;;;;;5.37;4.80;;;13.70;59.20;;;;;;5002590;28;20706;-82
2021/09/28 06:44:30;;;;;;;6.47;4.90;;;13.70;59.20;;;;;;5017176;28;20289;-82
2021/09/28 06:46:55;;;;;;;5.43;4.90;;;13.60;59.60;;;;;;5001324;28;21142;-81
2021/09/28 06:49:21;;;;;;;4.80;4.50;;;13.50;58.90;;;;;;5009428;28;20910;-82
2021/09/28 06:51:47;;;;;;;6.70;4.30;;;13.60;59.80;;;;;;5002561;28;20704;-81
2021/09/28 06:54:13;;;;;;;4.57;4.20;;;13.60;59.40;;;;;;4988604;28;20417;-86
2021/09/28 06:56:41;;;;;;;10.10;9.27;;;13.60;59.40;;;;;;4997315;28;20447;-86
2021/09/28 06:59:10;;;;;;;5.30;4.90;;;13.50;59.90;;;;;;5000844;28;20648;-86
2021/09/28 07:01:37;;;;;;;7.53;5.00;;;13.60;59.70;;;;;;4999904;28;20475;-87
2021/09/28 07:04:03;;;;;;;5.20;4.70;;;13.70;59.90;;;;;;4982817;28;20460;-86
2021/09/28 07:06:30;;;;;;;5.57;5.07;;;13.70;58.90;;;;;;4997751;28;20460;-86
2021/09/28 07:08:55;;;;;;;6.73;4.83;;;13.70;58.60;;;;;;5017497;28;20447;-86
2021/09/28 07:11:21;;;;;;;7.53;4.67;;;13.70;58.50;;;;;;5017684;28;20508;-86
2021/09/28 07:13:48;;;;;;;6.90;5.23;;;13.60;58.50;;;;;;5018092;28;20220;-86
2021/09/28 07:16:14;;;;;;;8.40;5.20;;;13.60;59.30;;;;;;5019093;28;20213;-86
2021/09/28 07:18:40;;;;;;;5.83;5.03;;;13.60;59.30;;;;;;5018704;28;20513;-86
2021/09/28 07:21:06;;;;;;;9.93;8.60;;;13.50;59.40;;;;;;5018700;28;20813;-86
2021/09/28 07:23:32;;;;;;;7.20;6.33;;;13.50;60.10;;;;;;5018870;28;20571;-86
2021/09/28 07:25:58;;;;;;;5.60;5.10;;;13.60;59.60;;;;;;5018833;28;20220;-86
2021/09/28 07:28:23;;;;;;;6.13;5.37;;;13.60;59.70;;;;;;5019459;28;20445;-86
2021/09/28 07:30:50;;;;;;;7.57;5.07;;;13.70;59.40;;;;;;5018698;28;20212;-86
2021/09/28 07:33:16;;;;;;;11.33;5.93;;;13.70;60.00;;;;;;5017279;28;20220;-86
2021/09/28 07:35:44;;;;;;;7.90;5.77;;;13.70;59.70;;;;;;5016749;28;20450;-86
2021/09/28 07:38:11;;;;;;;10.33;7.23;;;13.60;59.30;;;;;;5018120;28;20473;-86
2021/09/28 07:40:39;;;;;;;6.73;6.00;;;13.70;59.70;;;;;;5018521;28;20454;-86
2021/09/28 07:43:04;;;;;;;6.00;5.17;;;13.80;59.10;;;;;;5018362;28;20525;-86
2021/09/28 07:45:30;;;;;;;8.70;5.80;;;13.90;58.50;;;;;;5019056;28;20497;-86
2021/09/28 07:47:56;;;;;;;6.33;5.73;;;14.00;58.80;;;;;;5018180;28;20692;-86
2021/09/28 07:50:21;;;;;;;5.43;4.93;;;14.00;57.80;;;;;;5017105;28;20232;-85
2021/09/28 07:52:47;;;;;;;8.30;5.87;;;14.00;58.20;;;;;;5017873;28;20232;-84
2021/09/28 07:55:13;;;;;;;6.10;5.50;;;14.00;58.50;;;;;;5018580;28;20594;-85
2021/09/28 07:57:39;;;;;;;7.77;5.60;;;14.00;58.60;;;;;;5017300;28;20228;-84
2021/09/28 08:00:06;;;;;;;6.07;5.47;;;14.20;58.00;;;;;;5016618;28;20252;-85
2021/09/28 08:02:32;;;;;;;6.70;4.97;;;14.30;57.90;;;;;;5017879;28;20472;-85
2021/09/28 08:04:58;;;;;;;6.40;6.00;;;14.50;57.30;;;;;;5018013;28;20451;-85
2021/09/28 08:07:23;;;;;;;7.27;6.60;;;14.50;55.40;;;;;;5011827;28;20260;-85
2021/09/28 08:09:49;;;;;;;6.07;5.57;;;14.60;55.40;;;;;;5018123;28;20370;-83
2021/09/28 08:12:14;;;;;;;12.00;6.17;;;14.70;54.80;;;;;;5017909;28;20225;-85
2021/09/28 08:14:40;;;;;;;7.70;6.80;;;14.70;53.30;;;;;;5016989;28;20410;-86
2021/09/28 08:17:06;;;;;;;6.70;6.07;;;14.70;52.50;;;;;;5016544;28;20254;-86
2021/09/28 08:19:39;;;;;;;6.40;5.80;;;14.70;53.20;;;;;;5017401;28;20224;-86
2021/09/28 08:22:09;;;;;;;8.50;5.50;;;14.60;53.70;;;;;;5016118;28;20247;-86
2021/09/28 08:24:40;;;;;;;6.30;5.80;;;14.70;53.80;;;;;;5018106;28;20967;-86
2021/09/28 08:29:55;;;;;;;5.40;5.10;;;14.70;53.10;;;;;;5018964;28;20451;-85
2021/09/28 08:32:21;;;;;;;5.00;4.60;;;14.70;52.20;;;;;;5016329;28;20540;-82
2021/09/28 08:34:47;;;;;;;6.93;5.90;;;14.70;52.80;;;;;;5017213;28;21177;-86
2021/09/28 08:37:14;;;;;;;6.67;6.10;;;14.60;52.90;;;;;;5016955;28;20311;-86
2021/09/28 08:39:40;;;;;;;6.23;5.80;;;14.60;52.40;;;;;;5017788;28;20278;-86
2021/09/28 08:42:06;;;;;;;7.80;5.87;;;14.70;52.00;;;;;;5017518;28;20538;-86
2021/09/28 08:44:31;;;;;;;6.73;6.03;;;14.70;51.60;;;;;;5018238;28;20459;-86
2021/09/28 08:46:57;;;;;;;6.27;5.70;;;14.70;52.40;;;;;;5017408;28;20228;-85
2021/09/28 08:49:24;;;;;;;9.47;6.70;;;14.70;52.10;;;;;;5017076;28;20228;-86
2021/09/28 08:51:51;;;;;;;6.83;6.33;;;14.70;51.90;;;;;;5017513;28;20474;-85
2021/09/28 08:54:17;;;;;;;8.20;5.87;;;14.60;52.20;;;;;;5017177;28;20439;-85
2021/09/28 08:56:44;;;;;;;8.47;5.60;;;14.60;52.00;;;;;;5018103;28;20459;-85
2021/09/28 08:59:13;;;;;;;6.33;5.83;;;14.60;53.20;;;;;;5019314;28;20787;-85
2021/09/28 09:01:53;;;;;;;8.80;6.03;;;14.60;53.60;;;;;;5018727;28;20539;-85
2021/09/28 09:04:21;;;;;;;7.80;6.30;;;14.60;53.00;;;;;;5017872;28;20455;-85
2021/09/28 09:06:47;;;;;;;6.90;6.33;;;14.60;53.00;;;;;;5018129;28;20455;-85
2021/09/28 09:09:15;;;;;;;6.97;6.27;;;14.50;53.30;;;;;;5018335;28;20447;-85
2021/09/28 09:11:43;;;;;;;8.10;6.40;;;14.60;53.60;;;;;;5018077;28;20967;-84
2021/09/28 09:14:24;;;;;;;6.83;6.13;;;14.60;53.50;;;;;;5017728;28;20516;-84
2021/09/28 09:16:52;;;;;;;7.57;6.90;;;14.60;53.70;;;;;;5016632;28;20443;-85
2021/09/28 09:19:22;;;;;;;9.13;6.27;;;14.60;53.60;;;;;;5018251;28;21697;-86
2021/09/28 09:21:52;;;;;;;7.00;6.50;;;14.70;53.30;;;;;;5017799;28;20844;-85
2021/09/28 09:24:54;;;;;;;8.57;6.30;;;14.60;53.30;;;;;;5017133;28;20459;-86
2021/09/28 09:27:31;;;;;;;6.00;5.40;;;14.80;53.70;;;;;;4959912;28;20452;-86
2021/09/28 09:30:13;;;;;;;7.00;6.10;;;14.80;52.10;;;;;;5010115;28;20447;-85
2021/09/28 09:32:56;;;;;;;7.43;6.68;;;15.00;51.80;;;;;;5016050;28;20413;-85
2021/09/28 09:35:28;;;;;;;6.40;5.87;;;15.20;51.40;;;;;;5017911;28;20234;-86
2021/09/28 09:38:15;;;;;;;6.77;6.20;;;15.20;49.50;;;;;;5017247;28;20499;-85
2021/09/28 09:40:46;;;;;;;7.17;6.47;;;15.40;48.50;;;;;;5016919;28;20968;-84
2021/09/28 09:43:14;;;;;;;5.70;5.20;;;15.40;49.20;;;;;;5017128;28;20455;-85
2021/09/28 09:45:40;;;;;;;5.73;5.07;;;15.40;47.90;;;;;;5017013;28;20506;-85
2021/09/28 09:48:27;;;;;;;4.90;4.60;;;15.40;47.70;;;;;;5016768;28;20458;-86
2021/09/28 09:51:01;;;;;;;6.03;5.60;;;15.40;48.00;;;;;;5015496;28;20454;-85
2021/09/28 09:53:27;;;;;;;7.70;5.03;;;15.40;48.00;;;;;;5017265;28;20451;-85
2021/09/28 09:55:53;;;;;;;5.57;4.73;;;15.30;47.20;;;;;;5016358;28;20443;-85
2021/09/28 09:58:20;;;;;;;7.33;4.20;;;15.50;46.40;;;;;;5017015;28;20653;-85
2021/09/28 10:00:46;;;;;;;4.43;4.03;;;15.50;45.70;;;;;;5016762;28;20693;-85
2021/09/28 10:03:11;;;;;;;5.47;4.90;;;15.50;44.20;;;;;;5016444;28;21037;-83
2021/09/28 10:05:37;;;;;;;8.30;4.50;;;15.60;45.20;;;;;;5016614;28;20553;-84
2021/09/28 10:08:08;;;;;;;8.20;5.23;;;15.60;45.10;;;;;;5016529;28;20246;-84
2021/09/28 10:10:35;;;;;;;4.70;4.40;;;15.60;45.30;;;;;;5016732;28;20453;-85
2021/09/28 10:13:00;;;;;;;5.60;4.93;;;15.80;44.80;;;;;;5016690;28;20451;-84
2021/09/28 10:15:26;;;;;;;7.13;5.30;;;16.00;43.30;;;;;;5018538;28;20481;-85
2021/09/28 10:17:52;;;;;;;4.97;4.67;;;16.00;42.10;;;;;;5017172;28;20236;-83
2021/09/28 10:20:21;;;;;;;5.00;4.60;;;16.10;41.80;;;;;;5016491;28;20278;-86
2021/09/28 10:22:59;;;;;;;4.13;3.80;;;16.10;41.30;;;;;;5016034;28;20534;-84
2021/09/28 10:25:36;;;;;;;4.50;3.93;;;16.10;40.90;;;;;;5023450;28;20481;-84
2021/09/28 10:28:05;;;;;;;4.23;3.93;;;16.10;40.80;;;;;;5023564;28;20454;-84
2021/09/28 10:30:34;;;;;;;4.60;4.20;;;16.20;42.00;;;;;;5022266;28;20459;-83
2021/09/28 10:33:03;;;;;;;5.87;4.23;;;16.20;41.40;;;;;;5021940;28;20458;-84
2021/09/28 10:35:30;;;;;;;5.13;4.73;;;16.20;42.10;;;;;;5023501;28;20461;-84
2021/09/28 10:38:01;;;;;;;5.57;4.60;;;16.20;42.70;;;;;;5024663;28;20864;-84
2021/09/28 10:40:26;;;;;;;5.47;4.80;;;16.30;43.40;;;;;;5022576;28;20955;-84
2021/09/28 10:42:52;;;;;;;5.63;4.30;;;16.20;42.80;;;;;;5023208;28;20466;-85
2021/09/28 10:45:39;;;;;;;8.10;4.83;;;16.10;43.30;;;;;;5022963;28;20881;-86
2021/09/28 10:48:07;;;;;;;5.20;4.60;;;16.10;44.10;;;;;;5009221;28;20454;-85
2021/09/28 10:50:34;;;;;;;8.40;6.00;;;16.00;43.40;;;;;;5012718;28;20456;-85
2021/09/28 10:53:05;;;;;;;5.40;4.17;;;16.00;43.10;;;;;;5003671;28;20460;-84
2021/09/28 10:55:56;;;;;;;6.50;5.17;;;16.10;42.40;;;;;;5003004;28;20452;-85
2021/09/28 10:58:23;;;;;;;5.17;4.70;;;15.90;42.50;;;;;;5018610;28;20455;-83
2021/09/28 11:00:49;;;;;;;7.27;4.60;;;15.80;42.30;;;;;;5003159;28;20454;-84
2021/09/28 11:03:16;;;;;;;4.97;4.23;;;15.80;42.60;;;;;;5002917;28;20451;-84
2021/09/28 11:05:44;;;;;;;6.10;4.90;;;15.70;42.70;;;;;;5003567;28;21384;-82
2021/09/28 11:08:14;;;;;;;5.20;4.20;;;15.70;41.20;;;;;;5003095;28;21078;-83
2021/09/28 11:10:39;;;;;;;3.70;3.40;;;15.70;40.60;;;;;;5014523;28;20605;-84
2021/09/28 11:13:07;;;;;;;3.60;3.17;;;15.90;40.20;;;;;;5023492;28;20542;-84
2021/09/28 11:15:33;;;;;;;3.73;3.43;;;16.00;39.30;;;;;;5022974;28;20232;-84
2021/09/28 11:18:08;;;;;;;3.80;3.47;;;16.00;37.90;;;;;;5023092;28;20451;-83
2021/09/28 11:20:35;;;;;;;4.03;3.73;;;16.10;38.60;;;;;;5023441;28;20538;-83
2021/09/28 11:23:04;;;;;;;3.60;3.00;;;16.30;37.10;;;;;;5023381;28;20833;-82
2021/09/28 11:25:35;;;;;;;4.33;3.93;;;16.30;37.60;;;;;;5023642;28;20454;-83
2021/09/28 11:28:13;;;;;;;6.30;4.00;;;16.40;39.80;;;;;;5024087;28;20449;-83
2021/09/28 11:30:55;;;;;;;4.57;4.17;;;16.40;37.10;;;;;;5024914;28;20476;-83
2021/09/28 11:33:22;;;;;;;6.17;5.47;;;16.50;37.20;;;;;;5023057;28;20634;-83
2021/09/28 11:36:02;;;;;;;4.80;4.40;;;16.70;39.20;;;;;;5021340;28;20559;-83
2021/09/28 11:38:42;;;;;;;5.53;5.03;;;16.80;37.50;;;;;;5018920;28;20817;-82
2021/09/28 11:41:12;;;;;;;6.37;5.03;;;16.70;37.10;;;;;;5020942;28;20458;-82
2021/09/28 11:43:39;;;;;;;7.23;5.30;;;16.70;36.50;;;;;;5021173;28;20458;-83
2021/09/28 11:46:08;;;;;;;5.70;5.10;;;16.70;36.20;;;;;;5021048;28;20446;-82
2021/09/28 11:48:39;;;;;;;7.30;4.70;;;16.80;37.50;;;;;;5020861;28;20447;-83
2021/09/28 11:51:12;;;;;;;6.27;4.63;;;16.70;35.60;;;;;;5021246;28;20447;-83
2021/09/28 11:53:42;;;;;;;7.37;5.83;;;16.70;37.40;;;;;;5021509;28;20458;-83
2021/09/28 11:56:09;;;;;;;7.10;4.37;;;16.90;37.40;;;;;;5022624;28;20865;-83
2021/09/28 11:58:37;;;;;;;4.53;4.23;;;17.10;36.40;;;;;;5025033;28;20513;-80
2021/09/28 12:01:06;;;;;;;5.20;4.80;;;17.10;38.60;;;;;;5019219;28;20542;-81
2021/09/28 12:03:34;;;;;;;8.60;4.83;;;17.40;35.10;;;;;;5018448;28;20451;-81
2021/09/28 12:06:22;;;;;;;5.63;4.20;;;17.50;36.40;;;;;;5018475;28;20451;-81
2021/09/28 12:08:48;;;;;;;5.00;4.50;;;17.40;36.50;;;;;;5017289;28;20585;-81
2021/09/28 12:11:13;;;;;;;5.00;4.63;;;17.30;36.80;;;;;;5018512;28;20533;-81
2021/09/28 12:13:48;;;;;;;4.37;3.97;;;17.40;37.00;;;;;;5018477;28;20232;-80
2021/09/28 12:16:18;;;;;;;5.43;4.93;;;17.40;35.80;;;;;;5019123;28;20549;-80
2021/09/28 12:18:44;;;;;;;5.27;4.77;;;17.40;36.90;;;;;;5019087;28;20839;-80
2021/09/28 12:21:13;;;;;;;5.13;4.73;;;17.20;35.20;;;;;;5019306;28;20944;-81
2021/09/28 12:23:39;;;;;;;5.67;4.93;;;17.10;35.60;;;;;;5019757;28;20806;-80
2021/09/28 12:26:05;;;;;;;5.00;4.60;;;17.00;35.10;;;;;;5019047;28;20447;-81
2021/09/28 12:28:40;;;;;;;5.50;5.00;;;16.80;36.60;;;;;;5020088;28;20224;-81
2021/09/28 12:31:08;;;;;;;5.90;4.90;;;17.00;35.80;;;;;;5018733;28;20458;-80
2021/09/28 12:33:40;;;;;;;8.40;5.00;;;17.10;35.20;;;;;;5018304;28;20818;-81
2021/09/28 12:36:06;;;;;;;6.67;5.03;;;17.30;38.00;;;;;;5019072;28;20451;-81
2021/09/28 12:38:31;;;;;;;8.10;4.93;;;17.30;36.00;;;;;;5018675;28;20526;-80
2021/09/28 12:41:08;;;;;;;5.30;4.80;;;17.40;34.70;;;;;;5018725;28;20444;-80
2021/09/28 12:43:35;;;;;;;5.53;5.00;;;17.40;34.80;;;;;;5017335;28;20310;-80
2021/09/28 12:46:04;;;;;;;5.20;4.70;;;17.40;35.90;;;;;;5016921;28;20960;-80
2021/09/28 12:48:42;;;;;;;6.00;5.50;;;17.30;35.50;;;;;;5018616;28;20928;-80